sensor_id;sensor_type;location;lat;lon;timestamp;P1;durP1;ratioP1;P2;durP2;ratioP2
38427;SDS011;24211;49.980;19.776;2023-07-08T07:31:07;5.63;;;2.47;;
38427;SDS011;24211;49.980;19.776;2023-07-08T07:33:34;4.90;;;2.45;;
38427;SDS011;24211;49.980;19.776;2023-07-08T07:36:01;3.17;;;2.15;;
38427;SDS011;24211;49.980;19.776;2023-07-08T07:38:29;4.55;;;2.35;;
38427;SDS011;24211;49.980;19.776;2023-07-08T07:40:59;4.90;;;2.30;;
38427;SDS011;24211;49.980;19.776;2023-07-08T07:43:31;6.25;;;2.08;;
38427;SDS011;24211;49.980;19.776;2023-07-08T07:49:13;4.35;;;2.22;;
38427;SDS011;24211;49.980;19.776;2023-07-08T07:51:40;4.63;;;2.30;;
38427;SDS011;24211;49.980;19.776;2023-07-08T07:54:07;4.80;;;2.38;;
38427;SDS011;24211;49.980;19.776;2023-07-08T07:56:36;3.85;;;2.10;;
38427;SDS011;24211;49.980;19.776;2023-07-08T08:01:56;3.53;;;2.10;;
38427;SDS011;24211;49.980;19.776;2023-07-08T08:04:24;3.72;;;1.85;;
38427;SDS011;24211;49.980;19.776;2023-07-08T08:06:51;4.75;;;2.20;;
38427;SDS011;24211;49.980;19.776;2023-07-08T08:09:18;4.88;;;2.20;;
38427;SDS011;24211;49.980;19.776;2023-07-08T08:11:45;3.38;;;1.88;;
38427;SDS011;24211;49.980;19.776;2023-07-08T08:14:13;3.40;;;1.85;;
38427;SDS011;24211;49.980;19.776;2023-07-08T08:16:40;2.92;;;1.80;;
38427;SDS011;24211;49.980;19.776;2023-07-08T08:19:07;2.65;;;1.70;;
38427;SDS011;24211;49.980;19.776;2023-07-08T08:21:35;3.08;;;1.70;;
38427;SDS011;24211;49.980;19.776;2023-07-08T08:24:03;2.85;;;1.58;;
38427;SDS011;24211;49.980;19.776;2023-07-08T08:26:30;2.88;;;1.70;;
38427;SDS011;24211;49.980;19.776;2023-07-08T08:28:58;4.07;;;1.70;;
38427;SDS011;24211;49.980;19.776;2023-07-08T08:31:25;2.85;;;1.75;;
38427;SDS011;24211;49.980;19.776;2023-07-08T08:33:52;3.63;;;1.45;;
38427;SDS011;24211;49.980;19.776;2023-07-08T08:36:19;2.53;;;1.52;;
38427;SDS011;24211;49.980;19.776;2023-07-08T08:38:47;3.50;;;1.60;;
38427;SDS011;24211;49.980;19.776;2023-07-08T08:41:17;2.30;;;1.40;;
38427;SDS011;24211;49.980;19.776;2023-07-08T08:43:56;2.40;;;1.45;;
38427;SDS011;24211;49.980;19.776;2023-07-08T08:46:26;3.55;;;1.67;;
38427;SDS011;24211;49.980;19.776;2023-07-08T08:52:04;2.88;;;1.52;;
38427;SDS011;24211;49.980;19.776;2023-07-08T08:54:32;2.88;;;1.23;;
38427;SDS011;24211;49.980;19.776;2023-07-08T08:59:53;2.03;;;1.10;;
38427;SDS011;24211;49.980;19.776;2023-07-08T09:05:24;2.25;;;1.05;;
38427;SDS011;24211;49.980;19.776;2023-07-08T09:08:28;1.40;;;1.02;;
38427;SDS011;24211;49.980;19.776;2023-07-08T09:14:01;2.00;;;1.17;;
38427;SDS011;24211;49.980;19.776;2023-07-08T09:19:52;5.20;;;1.25;;
38427;SDS011;24211;49.980;19.776;2023-07-08T09:23:18;1.63;;;1.00;;
38427;SDS011;24211;49.980;19.776;2023-07-08T09:25:58;1.55;;;0.95;;
38427;SDS011;24211;49.980;19.776;2023-07-08T09:31:18;1.67;;;1.00;;
38427;SDS011;24211;49.980;19.776;2023-07-08T09:34:06;2.28;;;1.10;;
38427;SDS011;24211;49.980;19.776;2023-07-08T09:36:41;3.40;;;1.60;;
38427;SDS011;24211;49.980;19.776;2023-07-08T09:39:12;2.38;;;1.25;;
38427;SDS011;24211;49.980;19.776;2023-07-08T09:41:45;2.35;;;1.20;;
38427;SDS011;24211;49.980;19.776;2023-07-08T09:44:25;2.33;;;1.20;;
38427;SDS011;24211;49.980;19.776;2023-07-08T09:46:59;1.95;;;1.20;;
38427;SDS011;24211;49.980;19.776;2023-07-08T09:49:28;2.15;;;1.30;;
38427;SDS011;24211;49.980;19.776;2023-07-08T09:52:02;1.67;;;1.00;;
38427;SDS011;24211;49.980;19.776;2023-07-08T09:54:31;2.22;;;1.13;;
38427;SDS011;24211;49.980;19.776;2023-07-08T10:00:03;2.20;;;1.10;;
38427;SDS011;24211;49.980;19.776;2023-07-08T10:02:51;2.20;;;1.10;;
38427;SDS011;24211;49.980;19.776;2023-07-08T10:05:32;2.45;;;1.23;;
38427;SDS011;24211;49.980;19.776;2023-07-08T10:08:14;2.42;;;1.17;;
38427;SDS011;24211;49.980;19.776;2023-07-08T10:13:52;1.77;;;1.00;;
38427;SDS011;24211;49.980;19.776;2023-07-08T10:16:39;2.03;;;1.00;;
38427;SDS011;24211;49.980;19.776;2023-07-08T10:19:14;1.90;;;1.20;;
38427;SDS011;24211;49.980;19.776;2023-07-08T10:27:53;4.15;;;1.40;;
38427;SDS011;24211;49.980;19.776;2023-07-08T10:30:53;2.15;;;1.20;;
38427;SDS011;24211;49.980;19.776;2023-07-08T10:33:47;1.67;;;1.10;;
38427;SDS011;24211;49.980;19.776;2023-07-08T10:36:26;2.35;;;1.10;;
38427;SDS011;24211;49.980;19.776;2023-07-08T10:42:47;1.85;;;1.00;;
38427;SDS011;24211;49.980;19.776;2023-07-08T10:57:59;2.53;;;0.85;;
38427;SDS011;24211;49.980;19.776;2023-07-08T11:01:07;1.70;;;0.90;;
38427;SDS011;24211;49.980;19.776;2023-07-08T11:07:43;1.98;;;0.90;;
38427;SDS011;24211;49.980;19.776;2023-07-08T11:10:28;2.63;;;0.80;;
38427;SDS011;24211;49.980;19.776;2023-07-08T11:13:05;1.65;;;0.90;;
38427;SDS011;24211;49.980;19.776;2023-07-08T11:21:51;1.95;;;0.90;;
38427;SDS011;24211;49.980;19.776;2023-07-08T11:27:26;1.95;;;1.00;;
38427;SDS011;24211;49.980;19.776;2023-07-08T11:32:39;1.77;;;1.00;;
38427;SDS011;24211;49.980;19.776;2023-07-08T11:35:17;2.90;;;1.10;;
38427;SDS011;24211;49.980;19.776;2023-07-08T11:38:16;3.17;;;1.00;;
38427;SDS011;24211;49.980;19.776;2023-07-08T11:40:56;2.40;;;1.00;;
38427;SDS011;24211;49.980;19.776;2023-07-08T11:43:37;2.67;;;1.15;;
38427;SDS011;24211;49.980;19.776;2023-07-08T11:46:23;1.48;;;0.98;;
38427;SDS011;24211;49.980;19.776;2023-07-08T11:49:04;3.28;;;0.95;;
38427;SDS011;24211;49.980;19.776;2023-07-08T11:51:41;1.60;;;1.10;;
38427;SDS011;24211;49.980;19.776;2023-07-08T11:54:20;2.40;;;1.10;;
38427;SDS011;24211;49.980;19.776;2023-07-08T11:56:59;2.50;;;1.00;;
38427;SDS011;24211;49.980;19.776;2023-07-08T11:59:33;1.10;;;0.70;;
38427;SDS011;24211;49.980;19.776;2023-07-08T12:04:54;1.70;;;0.93;;
38427;SDS011;24211;49.980;19.776;2023-07-08T12:07:37;1.95;;;1.00;;
38427;SDS011;24211;49.980;19.776;2023-07-08T12:10:16;1.65;;;0.93;;
38427;SDS011;24211;49.980;19.776;2023-07-08T12:12:58;1.23;;;0.80;;
38427;SDS011;24211;49.980;19.776;2023-07-08T12:15:26;1.63;;;0.82;;
38427;SDS011;24211;49.980;19.776;2023-07-08T12:18:01;1.92;;;0.93;;
38427;SDS011;24211;49.980;19.776;2023-07-08T12:20:40;1.13;;;0.70;;
38427;SDS011;24211;49.980;19.776;2023-07-08T12:23:17;1.17;;;0.80;;
38427;SDS011;24211;49.980;19.776;2023-07-08T12:25:49;2.47;;;0.93;;
38427;SDS011;24211;49.980;19.776;2023-07-08T12:28:18;1.48;;;0.80;;
38427;SDS011;24211;49.980;19.776;2023-07-08T12:30:47;2.78;;;0.88;;
38427;SDS011;24211;49.980;19.776;2023-07-08T12:33:18;1.65;;;0.90;;
38427;SDS011;24211;49.980;19.776;2023-07-08T12:35:54;1.63;;;0.88;;
38427;SDS011;24211;49.980;19.776;2023-07-08T12:38:38;1.50;;;0.82;;
38427;SDS011;24211;49.980;19.776;2023-07-08T12:41:12;1.63;;;0.90;;
38427;SDS011;24211;49.980;19.776;2023-07-08T12:43:45;1.40;;;0.90;;
38427;SDS011;24211;49.980;19.776;2023-07-08T12:46:15;1.55;;;0.80;;
38427;SDS011;24211;49.980;19.776;2023-07-08T12:48:48;2.83;;;0.90;;
38427;SDS011;24211;49.980;19.776;2023-07-08T12:51:26;1.70;;;0.73;;
38427;SDS011;24211;49.980;19.776;2023-07-08T12:53:53;2.50;;;1.00;;
38427;SDS011;24211;49.980;19.776;2023-07-08T12:56:23;1.40;;;0.73;;
38427;SDS011;24211;49.980;19.776;2023-07-08T12:58:55;1.27;;;0.80;;
38427;SDS011;24211;49.980;19.776;2023-07-08T13:01:25;1.63;;;1.00;;
38427;SDS011;24211;49.980;19.776;2023-07-08T13:04:02;1.17;;;0.80;;
38427;SDS011;24211;49.980;19.776;2023-07-08T13:06:34;1.48;;;1.00;;
38427;SDS011;24211;49.980;19.776;2023-07-08T13:12:10;1.95;;;0.95;;
38427;SDS011;24211;49.980;19.776;2023-07-08T13:14:48;1.42;;;0.80;;
38427;SDS011;24211;49.980;19.776;2023-07-08T13:17:19;1.60;;;0.90;;
38427;SDS011;24211;49.980;19.776;2023-07-08T13:19:47;1.90;;;0.90;;
38427;SDS011;24211;49.980;19.776;2023-07-08T13:22:16;1.40;;;0.70;;
38427;SDS011;24211;49.980;19.776;2023-07-08T13:24:49;2.03;;;0.98;;
38427;SDS011;24211;49.980;19.776;2023-07-08T13:27:27;1.45;;;0.88;;
38427;SDS011;24211;49.980;19.776;2023-07-08T13:29:56;1.08;;;0.65;;
38427;SDS011;24211;49.980;19.776;2023-07-08T13:32:44;1.45;;;0.80;;
38427;SDS011;24211;49.980;19.776;2023-07-08T13:35:21;1.30;;;0.80;;
38427;SDS011;24211;49.980;19.776;2023-07-08T13:38:34;1.40;;;0.90;;
38427;SDS011;24211;49.980;19.776;2023-07-08T13:41:02;1.15;;;0.80;;
38427;SDS011;24211;49.980;19.776;2023-07-08T13:43:33;1.30;;;0.75;;
38427;SDS011;24211;49.980;19.776;2023-07-08T13:46:05;1.95;;;0.60;;
38427;SDS011;24211;49.980;19.776;2023-07-08T13:48:36;1.40;;;0.70;;
38427;SDS011;24211;49.980;19.776;2023-07-08T13:51:09;1.42;;;0.68;;
38427;SDS011;24211;49.980;19.776;2023-07-08T13:53:50;0.68;;;0.57;;
38427;SDS011;24211;49.980;19.776;2023-07-08T13:56:29;1.05;;;0.52;;
38427;SDS011;24211;49.980;19.776;2023-07-08T13:59:08;1.15;;;0.60;;
38427;SDS011;24211;49.980;19.776;2023-07-08T14:01:44;0.80;;;0.50;;
38427;SDS011;24211;49.980;19.776;2023-07-08T14:04:18;0.73;;;0.60;;
38427;SDS011;24211;49.980;19.776;2023-07-08T14:06:54;0.80;;;0.60;;
38427;SDS011;24211;49.980;19.776;2023-07-08T14:09:21;0.80;;;0.55;;
38427;SDS011;24211;49.980;19.776;2023-07-08T14:11:50;0.90;;;0.60;;
38427;SDS011;24211;49.980;19.776;2023-07-08T14:14:19;1.52;;;0.70;;
38427;SDS011;24211;49.980;19.776;2023-07-08T14:16:51;0.82;;;0.60;;
38427;SDS011;24211;49.980;19.776;2023-07-08T14:21:53;0.85;;;0.60;;
38427;SDS011;24211;49.980;19.776;2023-07-08T14:24:24;1.13;;;0.63;;
38427;SDS011;24211;49.980;19.776;2023-07-08T14:26:52;1.17;;;0.68;;
38427;SDS011;24211;49.980;19.776;2023-07-08T14:29:20;2.92;;;0.80;;
38427;SDS011;24211;49.980;19.776;2023-07-08T14:31:48;1.00;;;0.70;;
38427;SDS011;24211;49.980;19.776;2023-07-08T14:34:23;1.42;;;0.75;;
38427;SDS011;24211;49.980;19.776;2023-07-08T14:36:52;1.13;;;0.60;;
38427;SDS011;24211;49.980;19.776;2023-07-08T14:39:20;0.93;;;0.57;;
38427;SDS011;24211;49.980;19.776;2023-07-08T14:41:49;1.15;;;0.70;;
38427;SDS011;24211;49.980;19.776;2023-07-08T14:44:21;0.93;;;0.60;;
38427;SDS011;24211;49.980;19.776;2023-07-08T14:46:52;2.15;;;0.75;;
38427;SDS011;24211;49.980;19.776;2023-07-08T14:49:22;1.20;;;0.60;;
38427;SDS011;24211;49.980;19.776;2023-07-08T14:51:50;2.00;;;0.60;;
38427;SDS011;24211;49.980;19.776;2023-07-08T14:54:18;1.35;;;0.60;;
38427;SDS011;24211;49.980;19.776;2023-07-08T14:56:47;1.45;;;0.70;;
38427;SDS011;24211;49.980;19.776;2023-07-08T14:59:20;1.42;;;0.70;;
38427;SDS011;24211;49.980;19.776;2023-07-08T15:01:51;0.82;;;0.60;;
38427;SDS011;24211;49.980;19.776;2023-07-08T15:04:23;1.23;;;0.70;;
38427;SDS011;24211;49.980;19.776;2023-07-08T15:06:50;1.70;;;0.50;;
38427;SDS011;24211;49.980;19.776;2023-07-08T15:09:20;3.60;;;0.87;;
38427;SDS011;24211;49.980;19.776;2023-07-08T15:11:47;1.80;;;0.70;;
38427;SDS011;24211;49.980;19.776;2023-07-08T15:14:21;1.33;;;0.70;;
38427;SDS011;24211;49.980;19.776;2023-07-08T15:16:51;1.52;;;0.73;;
38427;SDS011;24211;49.980;19.776;2023-07-08T15:19:20;1.50;;;0.73;;
38427;SDS011;24211;49.980;19.776;2023-07-08T15:21:49;0.70;;;0.50;;
38427;SDS011;24211;49.980;19.776;2023-07-08T15:24:16;1.75;;;0.90;;
38427;SDS011;24211;49.980;19.776;2023-07-08T15:26:45;1.50;;;0.80;;
38427;SDS011;24211;49.980;19.776;2023-07-08T15:29:19;1.00;;;0.60;;
38427;SDS011;24211;49.980;19.776;2023-07-08T15:31:49;2.80;;;0.80;;
38427;SDS011;24211;49.980;19.776;2023-07-08T15:34:19;1.45;;;0.80;;
38427;SDS011;24211;49.980;19.776;2023-07-08T15:36:49;0.95;;;0.70;;
38427;SDS011;24211;49.980;19.776;2023-07-08T15:39:16;2.10;;;0.65;;
38427;SDS011;24211;49.980;19.776;2023-07-08T15:41:43;1.08;;;0.60;;
38427;SDS011;24211;49.980;19.776;2023-07-08T15:44:12;1.45;;;0.80;;
38427;SDS011;24211;49.980;19.776;2023-07-08T15:46:41;1.35;;;0.70;;
38427;SDS011;24211;49.980;19.776;2023-07-08T15:49:13;1.58;;;0.77;;
38427;SDS011;24211;49.980;19.776;2023-07-08T15:51:46;1.42;;;0.70;;
38427;SDS011;24211;49.980;19.776;2023-07-08T15:54:16;1.00;;;0.70;;
38427;SDS011;24211;49.980;19.776;2023-07-08T15:56:46;2.67;;;0.70;;
38427;SDS011;24211;49.980;19.776;2023-07-08T15:59:17;1.25;;;0.70;;
38427;SDS011;24211;49.980;19.776;2023-07-08T16:01:55;1.25;;;0.68;;
38427;SDS011;24211;49.980;19.776;2023-07-08T16:04:42;1.10;;;0.70;;
38427;SDS011;24211;49.980;19.776;2023-07-08T16:07:09;1.63;;;0.70;;
38427;SDS011;24211;49.980;19.776;2023-07-08T16:09:36;1.42;;;0.60;;
38427;SDS011;24211;49.980;19.776;2023-07-08T16:12:03;1.23;;;0.70;;
38427;SDS011;24211;49.980;19.776;2023-07-08T16:14:31;1.00;;;0.63;;
38427;SDS011;24211;49.980;19.776;2023-07-08T16:16:59;1.15;;;0.77;;
38427;SDS011;24211;49.980;19.776;2023-07-08T16:19:26;1.25;;;0.65;;
38427;SDS011;24211;49.980;19.776;2023-07-08T16:21:53;1.33;;;0.65;;
38427;SDS011;24211;49.980;19.776;2023-07-08T16:24:20;1.73;;;0.70;;
38427;SDS011;24211;49.980;19.776;2023-07-08T16:26:47;1.00;;;0.70;;
38427;SDS011;24211;49.980;19.776;2023-07-08T16:29:15;1.25;;;0.70;;
38427;SDS011;24211;49.980;19.776;2023-07-08T16:31:43;1.02;;;0.65;;
38427;SDS011;24211;49.980;19.776;2023-07-08T16:34:12;1.63;;;0.70;;
38427;SDS011;24211;49.980;19.776;2023-07-08T16:36:40;1.00;;;0.70;;
38427;SDS011;24211;49.980;19.776;2023-07-08T16:39:08;0.75;;;0.65;;
38427;SDS011;24211;49.980;19.776;2023-07-08T16:41:35;0.90;;;0.65;;
38427;SDS011;24211;49.980;19.776;2023-07-08T16:44:12;1.23;;;0.63;;
38427;SDS011;24211;49.980;19.776;2023-07-08T16:46:45;2.35;;;0.90;;
38427;SDS011;24211;49.980;19.776;2023-07-08T16:49:12;2.03;;;0.80;;
38427;SDS011;24211;49.980;19.776;2023-07-08T16:51:40;1.20;;;0.60;;
38427;SDS011;24211;49.980;19.776;2023-07-08T16:54:11;1.40;;;0.85;;
38427;SDS011;24211;49.980;19.776;2023-07-08T16:56:44;1.20;;;0.70;;
38427;SDS011;24211;49.980;19.776;2023-07-08T16:59:12;1.58;;;0.60;;
38427;SDS011;24211;49.980;19.776;2023-07-08T17:01:42;1.23;;;0.70;;
38427;SDS011;24211;49.980;19.776;2023-07-08T17:04:11;2.00;;;0.88;;
38427;SDS011;24211;49.980;19.776;2023-07-08T17:06:40;1.48;;;0.70;;
38427;SDS011;24211;49.980;19.776;2023-07-08T17:09:09;1.50;;;0.80;;
38427;SDS011;24211;49.980;19.776;2023-07-08T17:11:38;1.73;;;0.85;;
38427;SDS011;24211;49.980;19.776;2023-07-08T17:14:05;2.33;;;0.80;;
38427;SDS011;24211;49.980;19.776;2023-07-08T17:16:35;2.13;;;0.75;;
38427;SDS011;24211;49.980;19.776;2023-07-08T17:19:04;1.58;;;0.98;;
38427;SDS011;24211;49.980;19.776;2023-07-08T17:21:31;1.40;;;0.85;;
38427;SDS011;24211;49.980;19.776;2023-07-08T17:23:58;0.90;;;0.70;;
38427;SDS011;24211;49.980;19.776;2023-07-08T17:26:26;1.52;;;0.80;;
38427;SDS011;24211;49.980;19.776;2023-07-08T17:28:53;1.60;;;0.80;;
38427;SDS011;24211;49.980;19.776;2023-07-08T17:31:21;2.03;;;0.95;;
38427;SDS011;24211;49.980;19.776;2023-07-08T17:33:53;1.63;;;0.70;;
38427;SDS011;24211;49.980;19.776;2023-07-08T17:36:28;1.35;;;0.85;;
38427;SDS011;24211;49.980;19.776;2023-07-08T17:38:59;1.30;;;0.75;;
38427;SDS011;24211;49.980;19.776;2023-07-08T17:41:27;1.20;;;0.70;;
38427;SDS011;24211;49.980;19.776;2023-07-08T17:43:55;1.42;;;0.70;;
38427;SDS011;24211;49.980;19.776;2023-07-08T17:46:23;1.10;;;0.68;;
38427;SDS011;24211;49.980;19.776;2023-07-08T17:48:54;0.90;;;0.60;;
38427;SDS011;24211;49.980;19.776;2023-07-08T17:51:23;2.85;;;0.80;;
38427;SDS011;24211;49.980;19.776;2023-07-08T17:53:52;1.87;;;0.80;;
38427;SDS011;24211;49.980;19.776;2023-07-08T17:56:22;1.63;;;0.60;;
38427;SDS011;24211;49.980;19.776;2023-07-08T17:58:57;1.65;;;0.80;;
38427;SDS011;24211;49.980;19.776;2023-07-08T18:01:26;1.35;;;0.80;;
38427;SDS011;24211;49.980;19.776;2023-07-08T18:03:54;1.00;;;0.70;;
38427;SDS011;24211;49.980;19.776;2023-07-08T18:06:21;1.13;;;0.70;;
38427;SDS011;24211;49.980;19.776;2023-07-08T18:08:49;1.42;;;0.80;;
38427;SDS011;24211;49.980;19.776;2023-07-08T18:11:18;1.08;;;0.70;;
38427;SDS011;24211;49.980;19.776;2023-07-08T18:13:49;1.20;;;0.75;;
38427;SDS011;24211;49.980;19.776;2023-07-08T18:16:19;1.33;;;0.90;;
38427;SDS011;24211;49.980;19.776;2023-07-08T18:18:49;1.50;;;1.00;;
38427;SDS011;24211;49.980;19.776;2023-07-08T18:21:21;1.92;;;1.00;;
38427;SDS011;24211;49.980;19.776;2023-07-08T18:23:53;2.17;;;0.90;;
38427;SDS011;24211;49.980;19.776;2023-07-08T18:26:25;2.00;;;1.00;;
38427;SDS011;24211;49.980;19.776;2023-07-08T18:28:55;2.40;;;1.10;;
38427;SDS011;24211;49.980;19.776;2023-07-08T18:31:32;2.05;;;1.20;;
38427;SDS011;24211;49.980;19.776;2023-07-08T18:34:03;3.10;;;1.40;;
38427;SDS011;24211;49.980;19.776;2023-07-08T18:36:35;2.97;;;1.63;;
38427;SDS011;24211;49.980;19.776;2023-07-08T18:39:03;3.05;;;1.65;;
38427;SDS011;24211;49.980;19.776;2023-07-08T18:41:39;3.97;;;1.70;;
38427;SDS011;24211;49.980;19.776;2023-07-08T18:44:20;3.60;;;1.70;;
38427;SDS011;24211;49.980;19.776;2023-07-08T18:46:54;2.78;;;1.50;;
38427;SDS011;24211;49.980;19.776;2023-07-08T18:49:22;4.03;;;1.70;;
38427;SDS011;24211;49.980;19.776;2023-07-08T18:51:53;3.17;;;1.80;;
38427;SDS011;24211;49.980;19.776;2023-07-08T18:54:20;6.00;;;2.70;;
38427;SDS011;24211;49.980;19.776;2023-07-08T18:56:49;6.00;;;2.70;;
38427;SDS011;24211;49.980;19.776;2023-07-08T18:59:16;4.70;;;2.28;;
38427;SDS011;24211;49.980;19.776;2023-07-08T19:01:44;6.05;;;2.80;;
38427;SDS011;24211;49.980;19.776;2023-07-08T19:04:21;6.50;;;2.63;;
38427;SDS011;24211;49.980;19.776;2023-07-08T19:06:52;6.03;;;2.50;;
38427;SDS011;24211;49.980;19.776;2023-07-08T19:09:23;4.68;;;2.40;;
38427;SDS011;24211;49.980;19.776;2023-07-08T19:11:51;4.63;;;2.33;;
38427;SDS011;24211;49.980;19.776;2023-07-08T19:14:18;5.55;;;2.50;;
38427;SDS011;24211;49.980;19.776;2023-07-08T19:16:45;5.43;;;2.42;;
38427;SDS011;24211;49.980;19.776;2023-07-08T19:19:13;5.90;;;2.75;;
38427;SDS011;24211;49.980;19.776;2023-07-08T19:21:40;5.85;;;2.70;;
38427;SDS011;24211;49.980;19.776;2023-07-08T19:24:10;5.70;;;2.75;;
38427;SDS011;24211;49.980;19.776;2023-07-08T19:26:58;5.72;;;2.70;;
38427;SDS011;24211;49.980;19.776;2023-07-08T19:29:25;5.05;;;2.42;;
38427;SDS011;24211;49.980;19.776;2023-07-08T19:31:52;4.72;;;2.60;;
38427;SDS011;24211;49.980;19.776;2023-07-08T19:34:19;5.88;;;3.10;;
38427;SDS011;24211;49.980;19.776;2023-07-08T19:36:46;6.75;;;3.38;;
38427;SDS011;24211;49.980;19.776;2023-07-08T19:39:13;7.22;;;3.50;;
38427;SDS011;24211;49.980;19.776;2023-07-08T19:41:41;7.32;;;3.40;;
38427;SDS011;24211;49.980;19.776;2023-07-08T19:44:09;6.13;;;3.30;;
38427;SDS011;24211;49.980;19.776;2023-07-08T19:46:52;5.22;;;3.10;;
38427;SDS011;24211;49.980;19.776;2023-07-08T19:49:19;6.65;;;3.35;;
38427;SDS011;24211;49.980;19.776;2023-07-08T19:51:46;5.82;;;3.15;;
38427;SDS011;24211;49.980;19.776;2023-07-08T19:54:13;5.72;;;2.83;;
38427;SDS011;24211;49.980;19.776;2023-07-08T19:56:40;5.05;;;2.97;;
38427;SDS011;24211;49.980;19.776;2023-07-08T19:59:09;6.90;;;3.08;;
38427;SDS011;24211;49.980;19.776;2023-07-08T20:01:43;5.15;;;2.90;;
38427;SDS011;24211;49.980;19.776;2023-07-08T20:04:10;4.95;;;2.65;;
38427;SDS011;24211;49.980;19.776;2023-07-08T20:06:43;6.30;;;2.90;;
38427;SDS011;24211;49.980;19.776;2023-07-08T20:09:11;6.63;;;2.60;;
38427;SDS011;24211;49.980;19.776;2023-07-08T20:11:42;6.75;;;3.10;;
38427;SDS011;24211;49.980;19.776;2023-07-08T20:14:09;6.15;;;3.15;;
38427;SDS011;24211;49.980;19.776;2023-07-08T20:16:37;5.22;;;2.92;;
38427;SDS011;24211;49.980;19.776;2023-07-08T20:19:20;5.40;;;3.25;;
38427;SDS011;24211;49.980;19.776;2023-07-08T20:21:53;6.07;;;2.92;;
38427;SDS011;24211;49.980;19.776;2023-07-08T20:24:20;6.65;;;3.10;;
38427;SDS011;24211;49.980;19.776;2023-07-08T20:26:47;6.13;;;3.30;;
38427;SDS011;24211;49.980;19.776;2023-07-08T20:29:16;6.13;;;3.00;;
38427;SDS011;24211;49.980;19.776;2023-07-08T20:31:44;5.68;;;3.08;;
38427;SDS011;24211;49.980;19.776;2023-07-08T20:34:11;5.13;;;2.90;;
38427;SDS011;24211;49.980;19.776;2023-07-08T20:36:44;5.93;;;2.85;;
38427;SDS011;24211;49.980;19.776;2023-07-08T20:39:11;5.65;;;2.83;;
38427;SDS011;24211;49.980;19.776;2023-07-08T20:41:39;6.38;;;3.45;;
38427;SDS011;24211;49.980;19.776;2023-07-08T20:44:06;5.57;;;2.88;;
38427;SDS011;24211;49.980;19.776;2023-07-08T20:46:34;5.00;;;3.03;;
38427;SDS011;24211;49.980;19.776;2023-07-08T20:49:02;5.68;;;2.92;;
38427;SDS011;24211;49.980;19.776;2023-07-08T20:51:29;7.53;;;3.00;;
38427;SDS011;24211;49.980;19.776;2023-07-08T20:53:57;5.13;;;2.88;;
38427;SDS011;24211;49.980;19.776;2023-07-08T20:56:32;5.75;;;2.90;;
38427;SDS011;24211;49.980;19.776;2023-07-08T20:58:59;4.95;;;2.72;;
38427;SDS011;24211;49.980;19.776;2023-07-08T21:01:27;5.68;;;3.15;;
38427;SDS011;24211;49.980;19.776;2023-07-08T21:03:58;5.45;;;3.00;;
38427;SDS011;24211;49.980;19.776;2023-07-08T21:06:27;4.38;;;2.58;;
38427;SDS011;24211;49.980;19.776;2023-07-08T21:08:59;5.15;;;2.75;;
38427;SDS011;24211;49.980;19.776;2023-07-08T21:11:27;5.00;;;2.50;;
38427;SDS011;24211;49.980;19.776;2023-07-08T21:13:54;4.20;;;2.33;;
38427;SDS011;24211;49.980;19.776;2023-07-08T21:16:24;5.57;;;2.60;;
38427;SDS011;24211;49.980;19.776;2023-07-08T21:18:55;4.28;;;2.60;;
38427;SDS011;24211;49.980;19.776;2023-07-08T21:21:24;6.18;;;2.60;;
38427;SDS011;24211;49.980;19.776;2023-07-08T21:23:51;4.97;;;2.50;;
38427;SDS011;24211;49.980;19.776;2023-07-08T21:26:24;4.55;;;2.45;;
38427;SDS011;24211;49.980;19.776;2023-07-08T21:28:55;6.32;;;2.58;;
38427;SDS011;24211;49.980;19.776;2023-07-08T21:31:26;5.57;;;2.88;;
38427;SDS011;24211;49.980;19.776;2023-07-08T21:33:53;5.55;;;2.83;;
38427;SDS011;24211;49.980;19.776;2023-07-08T21:36:24;5.00;;;2.50;;
38427;SDS011;24211;49.980;19.776;2023-07-08T21:38:57;5.28;;;3.05;;
38427;SDS011;24211;49.980;19.776;2023-07-08T21:41:45;4.53;;;2.30;;
38427;SDS011;24211;49.980;19.776;2023-07-08T21:44:13;6.68;;;2.60;;
38427;SDS011;24211;49.980;19.776;2023-07-08T21:46:42;4.82;;;2.50;;
38427;SDS011;24211;49.980;19.776;2023-07-08T21:49:10;5.00;;;2.85;;
38427;SDS011;24211;49.980;19.776;2023-07-08T21:51:37;6.68;;;2.70;;
38427;SDS011;24211;49.980;19.776;2023-07-08T21:54:05;4.82;;;2.60;;
38427;SDS011;24211;49.980;19.776;2023-07-08T21:56:33;6.80;;;2.70;;
38427;SDS011;24211;49.980;19.776;2023-07-08T21:59:00;5.13;;;2.70;;
38427;SDS011;24211;49.980;19.776;2023-07-08T22:01:29;3.83;;;2.33;;
38427;SDS011;24211;49.980;19.776;2023-07-08T22:04:00;4.30;;;2.45;;
38427;SDS011;24211;49.980;19.776;2023-07-08T22:06:28;5.53;;;2.42;;
38427;SDS011;24211;49.980;19.776;2023-07-08T22:08:56;4.82;;;2.80;;
38427;SDS011;24211;49.980;19.776;2023-07-08T22:11:27;4.97;;;2.90;;
38427;SDS011;24211;49.980;19.776;2023-07-08T22:13:58;5.70;;;2.90;;
38427;SDS011;24211;49.980;19.776;2023-07-08T22:16:26;5.20;;;2.63;;
38427;SDS011;24211;49.980;19.776;2023-07-08T22:18:56;5.22;;;2.58;;
38427;SDS011;24211;49.980;19.776;2023-07-08T22:21:25;4.97;;;2.72;;
38427;SDS011;24211;49.980;19.776;2023-07-08T22:24:01;4.60;;;2.80;;
38427;SDS011;24211;49.980;19.776;2023-07-08T22:26:33;5.20;;;2.67;;
38427;SDS011;24211;49.980;19.776;2023-07-08T22:29:11;5.20;;;2.80;;
38427;SDS011;24211;49.980;19.776;2023-07-08T22:31:39;4.78;;;2.50;;
38427;SDS011;24211;49.980;19.776;2023-07-08T22:34:16;5.10;;;2.55;;
38427;SDS011;24211;49.980;19.776;2023-07-08T22:36:45;5.40;;;2.85;;
38427;SDS011;24211;49.980;19.776;2023-07-08T22:39:13;5.43;;;2.75;;
38427;SDS011;24211;49.980;19.776;2023-07-08T22:41:44;5.82;;;2.90;;
38427;SDS011;24211;49.980;19.776;2023-07-08T22:44:16;4.82;;;2.70;;
38427;SDS011;24211;49.980;19.776;2023-07-08T22:46:45;5.45;;;2.65;;
38427;SDS011;24211;49.980;19.776;2023-07-08T22:49:13;4.78;;;2.58;;
38427;SDS011;24211;49.980;19.776;2023-07-08T22:51:55;4.95;;;2.60;;
38427;SDS011;24211;49.980;19.776;2023-07-08T22:54:25;6.07;;;2.92;;
38427;SDS011;24211;49.980;19.776;2023-07-08T22:56:55;5.35;;;2.30;;
38427;SDS011;24211;49.980;19.776;2023-07-08T22:59:22;4.78;;;2.60;;
38427;SDS011;24211;49.980;19.776;2023-07-08T23:01:50;6.47;;;2.60;;
38427;SDS011;24211;49.980;19.776;2023-07-08T23:04:17;5.28;;;2.70;;
38427;SDS011;24211;49.980;19.776;2023-07-08T23:06:45;5.63;;;2.80;;
38427;SDS011;24211;49.980;19.776;2023-07-08T23:09:12;5.38;;;2.78;;
38427;SDS011;24211;49.980;19.776;2023-07-08T23:11:42;5.28;;;2.70;;
38427;SDS011;24211;49.980;19.776;2023-07-08T23:14:10;5.95;;;2.83;;
38427;SDS011;24211;49.980;19.776;2023-07-08T23:16:38;5.00;;;2.85;;
38427;SDS011;24211;49.980;19.776;2023-07-08T23:19:06;5.25;;;2.70;;
38427;SDS011;24211;49.980;19.776;2023-07-08T23:21:38;5.72;;;2.97;;
38427;SDS011;24211;49.980;19.776;2023-07-08T23:24:06;4.85;;;2.80;;
38427;SDS011;24211;49.980;19.776;2023-07-08T23:26:38;6.07;;;3.05;;
38427;SDS011;24211;49.980;19.776;2023-07-08T23:29:14;5.63;;;2.90;;
38427;SDS011;24211;49.980;19.776;2023-07-08T23:31:46;5.75;;;3.13;;
38427;SDS011;24211;49.980;19.776;2023-07-08T23:34:16;5.90;;;3.17;;
38427;SDS011;24211;49.980;19.776;2023-07-08T23:36:44;5.20;;;2.70;;
38427;SDS011;24211;49.980;19.776;2023-07-08T23:39:20;5.35;;;2.88;;
38427;SDS011;24211;49.980;19.776;2023-07-08T23:41:51;6.05;;;2.72;;
38427;SDS011;24211;49.980;19.776;2023-07-08T23:44:19;4.95;;;2.90;;
38427;SDS011;24211;49.980;19.776;2023-07-08T23:46:49;5.35;;;2.90;;